This is the latest recevied weather packets stored in our database for station/object OK1LPD-6. If no packets are shown the sender has not sent any weather packets the latest 10 day(s).
| Time | Temp. | Humidity | Pressure | Rain* | Wind** | Luminosity | Snow |
|---|---|---|---|---|---|---|---|
| 1777862711 | 11.11° C | 73% | 1013.4 hPa | 0 mm | - | - | - |
| 1777862101 | 11.11° C | 73% | 1013.4 hPa | 0 mm | - | - | - |
| 1777861501 | 11.67° C | 74% | 1013.4 hPa | 0 mm | - | - | - |
| 1777860914 | 11.67° C | 75% | 1013.3 hPa | 0 mm | - | - | - |
| 1777860301 | 11.67° C | 71% | 1013.2 hPa | 0 mm | - | - | - |
| 1777859702 | 11.67° C | 70% | 1012.9 hPa | 0 mm | - | - | - |
| 1777859112 | 12.22° C | 70% | 1013.1 hPa | 0 mm | - | - | - |
| 1777858501 | 12.22° C | 68% | 1013.1 hPa | 0 mm | - | - | - |
| 1777857903 | 12.22° C | 67% | 1013 hPa | 0 mm | - | - | - |
| 1777857314 | 12.78° C | 63% | 1012.9 hPa | 0 mm | - | - | - |
| 1777856702 | 12.78° C | 62% | 1013 hPa | 0 mm | - | - | - |
| 1777856102 | 13.33° C | 62% | 1012.9 hPa | 0 mm | - | - | - |
| 1777855513 | 13.89° C | 60% | 1013 hPa | 0 mm | - | - | - |
| 1777854902 | 14.44° C | 59% | 1012.8 hPa | 0 mm | - | - | - |
| 1777854302 | 14.44° C | 58% | 1012.5 hPa | 0 mm | - | - | - |
| 1777853720 | 15° C | 56% | 1012.4 hPa | 0 mm | - | - | - |
| 1777853103 | 15.56° C | 54% | 1012.3 hPa | 0 mm | - | - | - |
| 1777852504 | 15° C | 55% | 1012.3 hPa | 0 mm | - | - | - |
| 1777851921 | 15.56° C | 54% | 1012.3 hPa | 0 mm | - | - | - |
| 1777851304 | 15.56° C | 53% | 1012.3 hPa | 0 mm | - | - | - |
| 1777850703 | 16.11° C | 51% | 1012.3 hPa | 0 mm | - | - | - |
| 1777850124 | 16.67° C | 50% | 1012.1 hPa | 0 mm | - | - | - |
| 1777849504 | 17.78° C | 43% | 1012.1 hPa | 0 mm | - | - | - |
| 1777848904 | 18.33° C | 41% | 1012.1 hPa | 0 mm | - | - | - |
| 1777848322 | 18.33° C | 41% | 1012 hPa | 0 mm | - | - | - |
* Rain latest hour (hover to see other rain measurements)
** Current wind speed in m/s (hover to see current wind gust speed)